Time,TemperatureF,DewpointF,PressureIn,WindDirection,WindDirectionDegrees,WindSpeedMPH,WindSpeedGustMPH,Humidity,HourlyPrecipIn,Conditions,Clouds,dailyrainin,SoftwareType,DateUTC
2015-08-03 00:03:00,69.0,47.0,-100.00,North,-9999,0.0,0.0,46,-99.99,,,-99.99,,2015-08-03 07:03:00,
2015-08-03 00:13:00,69.0,47.0,-100.00,North,-9999,0.0,0.0,46,-99.99,,,-99.99,,2015-08-03 07:13:00,
2015-08-03 00:23:00,69.0,47.0,-100.00,North,-9999,0.0,0.0,46,-99.99,,,-99.99,,2015-08-03 07:23:00,
2015-08-03 00:33:00,68.0,46.0,-100.00,North,-9999,0.0,0.0,46,-99.99,,,-99.99,,2015-08-03 07:33:00,
2015-08-03 00:53:00,68.0,46.0,-100.00,North,-9999,0.0,0.0,46,-99.99,,,-99.99,,2015-08-03 07:53:00,
2015-08-03 01:03:00,68.0,46.0,-100.00,North,-9999,0.0,0.0,46,-99.99,,,-99.99,,2015-08-03 08:03:00,
2015-08-03 01:13:00,68.0,46.0,-100.00,North,-9999,0.0,0.0,46,-99.99,,,-99.99,,2015-08-03 08:13:00,
2015-08-03 01:23:00,68.0,46.0,-100.00,North,-9999,0.0,0.0,46,-99.99,,,-99.99,,2015-08-03 08:23:00,
2015-08-03 01:33:00,67.0,47.0,-100.00,North,-9999,0.0,2.0,48,-99.99,,,-99.99,,2015-08-03 08:33:00,
2015-08-03 01:53:00,67.0,47.0,-100.00,North,-9999,0.0,2.0,48,-99.99,,,-99.99,,2015-08-03 08:53:00,
2015-08-03 02:03:00,67.0,47.0,-100.00,North,-9999,0.0,2.0,48,-99.99,,,-99.99,,2015-08-03 09:03:00,
2015-08-03 02:12:00,67.0,47.0,-100.00,North,-9999,0.0,2.0,48,-99.99,,,-99.99,,2015-08-03 09:12:00,
2015-08-03 02:23:00,67.0,47.0,-100.00,North,-9999,0.0,2.0,48,-99.99,,,-99.99,,2015-08-03 09:23:00,
2015-08-03 02:33:00,68.0,47.0,-100.00,North,-9999,0.0,4.0,47,-99.99,,,-99.99,,2015-08-03 09:33:00,
2015-08-03 02:53:00,68.0,47.0,-100.00,North,-9999,0.0,4.0,47,-99.99,,,-99.99,,2015-08-03 09:53:00,
2015-08-03 03:03:00,68.0,47.0,-100.00,North,-9999,0.0,4.0,47,-99.99,,,-99.99,,2015-08-03 10:03:00,
2015-08-03 03:12:00,68.0,47.0,-100.00,North,-9999,0.0,4.0,47,-99.99,,,-99.99,,2015-08-03 10:12:00,
2015-08-03 03:23:00,68.0,47.0,-100.00,North,-9999,0.0,4.0,47,-99.99,,,-99.99,,2015-08-03 10:23:00,
2015-08-03 03:33:00,67.0,46.0,-100.00,North,-9999,0.0,2.0,46,-99.99,,,-99.99,,2015-08-03 10:33:00,
2015-08-03 03:53:00,67.0,46.0,-100.00,North,-9999,0.0,2.0,46,-99.99,,,-99.99,,2015-08-03 10:53:00,
2015-08-03 04:03:00,67.0,46.0,-100.00,North,-9999,0.0,2.0,46,-99.99,,,-99.99,,2015-08-03 11:03:00,
2015-08-03 04:13:00,67.0,46.0,-100.00,North,-9999,0.0,2.0,46,-99.99,,,-99.99,,2015-08-03 11:13:00,
2015-08-03 04:23:00,67.0,46.0,-100.00,North,-9999,0.0,2.0,46,-99.99,,,-99.99,,2015-08-03 11:23:00,
2015-08-03 04:33:00,66.0,46.0,-100.00,North,-9999,0.0,1.0,48,-99.99,,,-99.99,,2015-08-03 11:33:00,
2015-08-03 04:54:00,66.0,46.0,-100.00,North,-9999,0.0,1.0,48,-99.99,,,-99.99,,2015-08-03 11:54:00,
2015-08-03 05:03:00,66.0,46.0,-100.00,North,-9999,0.0,1.0,48,-99.99,,,-99.99,,2015-08-03 12:03:00,
2015-08-03 05:13:00,66.0,46.0,-100.00,North,-9999,0.0,1.0,48,-99.99,,,-99.99,,2015-08-03 12:13:00,
2015-08-03 05:23:00,66.0,46.0,-100.00,North,-9999,0.0,1.0,48,-99.99,,,-99.99,,2015-08-03 12:23:00,
2015-08-03 05:33:00,66.0,45.0,-100.00,North,-9999,0.0,1.0,46,-99.99,,,-99.99,,2015-08-03 12:33:00,
2015-08-03 05:54:00,66.0,45.0,-100.00,North,-9999,0.0,1.0,46,-99.99,,,-99.99,,2015-08-03 12:54:00,
2015-08-03 06:03:00,66.0,45.0,-100.00,North,-9999,0.0,1.0,46,-99.99,,,-99.99,,2015-08-03 13:03:00,
2015-08-03 06:13:00,66.0,45.0,-100.00,North,-9999,0.0,1.0,46,-99.99,,,-99.99,,2015-08-03 13:13:00,
2015-08-03 06:23:00,66.0,45.0,-100.00,North,-9999,0.0,1.0,46,-99.99,,,-99.99,,2015-08-03 13:23:00,
2015-08-03 06:33:00,67.0,46.0,-100.00,North,-9999,0.0,1.0,47,-99.99,,,-99.99,,2015-08-03 13:33:00,
2015-08-03 06:53:00,67.0,46.0,-100.00,North,-9999,0.0,1.0,47,-99.99,,,-99.99,,2015-08-03 13:53:00,
2015-08-03 07:03:00,67.0,46.0,-100.00,North,-9999,0.0,1.0,47,-99.99,,,-99.99,,2015-08-03 14:03:00,
2015-08-03 07:12:00,67.0,46.0,-100.00,North,-9999,0.0,1.0,47,-99.99,,,-99.99,,2015-08-03 14:12:00,
2015-08-03 08:33:00,76.0,51.0,-100.00,ENE,75,2.0,3.0,41,-99.99,,,-99.99,,2015-08-03 15:33:00,
2015-08-03 09:33:00,79.0,47.0,-100.00,ESE,105,2.0,5.0,32,-99.99,,,-99.99,,2015-08-03 16:33:00,
2015-08-03 10:33:00,82.0,47.0,-100.00,SSE,161,1.0,8.0,29,-99.99,,,-99.99,,2015-08-03 17:33:00,
2015-08-03 11:33:00,81.0,44.0,-100.00,SSE,155,4.0,12.0,27,-99.99,,,-99.99,,2015-08-03 18:33:00,
2015-08-03 11:54:00,81.0,44.0,-100.00,SSE,155,4.0,12.0,27,-99.99,,,-99.99,,2015-08-03 18:54:00,
2015-08-03 12:04:00,81.0,44.0,-100.00,SSE,155,4.0,12.0,27,-99.99,,,-99.99,,2015-08-03 19:04:00,
2015-08-03 12:13:00,81.0,44.0,-100.00,SSE,155,4.0,12.0,27,-99.99,,,-99.99,,2015-08-03 19:13:00,
2015-08-03 12:23:00,81.0,44.0,-100.00,SSE,155,4.0,12.0,27,-99.99,,,-99.99,,2015-08-03 19:23:00,
2015-08-03 12:33:00,83.0,46.0,-100.00,SSE,168,3.0,12.0,27,-99.99,,,-99.99,,2015-08-03 19:33:00,
2015-08-03 12:56:00,83.0,46.0,-100.00,SSE,168,3.0,12.0,27,-99.99,,,-99.99,,2015-08-03 19:56:00,
2015-08-03 13:03:00,83.0,46.0,-100.00,SSE,168,3.0,12.0,27,-99.99,,,-99.99,,2015-08-03 20:03:00,
2015-08-03 13:13:00,83.0,46.0,-100.00,SSE,168,3.0,12.0,27,-99.99,,,-99.99,,2015-08-03 20:13:00,
2015-08-03 13:23:00,83.0,46.0,-100.00,SSE,168,3.0,12.0,27,-99.99,,,-99.99,,2015-08-03 20:23:00,
2015-08-03 13:33:00,83.0,47.0,-100.00,SE,137,5.0,12.0,28,-99.99,,,-99.99,,2015-08-03 20:33:00,
2015-08-03 13:53:00,83.0,47.0,-100.00,SE,137,5.0,12.0,28,-99.99,,,-99.99,,2015-08-03 20:53:00,
2015-08-03 14:03:00,83.0,47.0,-100.00,SE,137,5.0,12.0,28,-99.99,,,-99.99,,2015-08-03 21:03:00,
2015-08-03 14:12:00,83.0,47.0,-100.00,SE,137,5.0,12.0,28,-99.99,,,-99.99,,2015-08-03 21:12:00,
2015-08-03 14:23:00,83.0,47.0,-100.00,SE,137,5.0,12.0,28,-99.99,,,-99.99,,2015-08-03 21:23:00,
2015-08-03 14:33:00,82.0,47.0,-100.00,SE,131,6.0,16.0,29,-99.99,,,-99.99,,2015-08-03 21:33:00,
2015-08-03 14:58:00,82.0,47.0,-100.00,SE,131,6.0,16.0,29,-99.99,,,-99.99,,2015-08-03 21:58:00,
2015-08-03 15:23:00,82.0,47.0,-100.00,SE,131,6.0,16.0,29,-99.99,,,-99.99,,2015-08-03 22:23:00,
2015-08-03 15:33:00,82.0,45.0,-100.00,SE,135,3.0,15.0,27,-99.99,,,-99.99,,2015-08-03 22:33:00,
2015-08-03 15:54:00,82.0,45.0,-100.00,SE,135,3.0,15.0,27,-99.99,,,-99.99,,2015-08-03 22:54:00,
2015-08-03 16:03:00,82.0,45.0,-100.00,SE,135,3.0,15.0,27,-99.99,,,-99.99,,2015-08-03 23:03:00,
2015-08-03 16:13:00,82.0,45.0,-100.00,SE,135,3.0,15.0,27,-99.99,,,-99.99,,2015-08-03 23:13:00,
2015-08-03 16:23:00,82.0,45.0,-100.00,SE,135,3.0,15.0,27,-99.99,,,-99.99,,2015-08-03 23:23:00,
2015-08-03 16:33:00,80.0,45.0,-100.00,SE,135,5.0,13.0,29,-99.99,,,-99.99,,2015-08-03 23:33:00,
2015-08-03 17:03:00,80.0,45.0,-100.00,SE,135,5.0,13.0,29,-99.99,,,-99.99,,2015-08-04 00:03:00,
2015-08-03 17:13:00,80.0,45.0,-100.00,SE,135,5.0,13.0,29,-99.99,,,-99.99,,2015-08-04 00:13:00,
2015-08-03 17:23:00,80.0,45.0,-100.00,SE,135,5.0,13.0,29,-99.99,,,-99.99,,2015-08-04 00:23:00,
2015-08-03 17:33:00,79.0,47.0,-100.00,SE,126,3.0,10.0,32,-99.99,,,-99.99,,2015-08-04 00:33:00,
2015-08-03 17:54:00,79.0,47.0,-100.00,SE,126,3.0,10.0,32,-99.99,,,-99.99,,2015-08-04 00:54:00,
2015-08-03 18:03:00,79.0,47.0,-100.00,SE,126,3.0,10.0,32,-99.99,,,-99.99,,2015-08-04 01:03:00,
2015-08-03 18:12:00,79.0,47.0,-100.00,SE,126,3.0,10.0,32,-99.99,,,-99.99,,2015-08-04 01:12:00,
2015-08-03 18:23:00,79.0,47.0,-100.00,SE,126,3.0,10.0,32,-99.99,,,-99.99,,2015-08-04 01:23:00,
2015-08-03 18:33:00,75.0,47.0,-100.00,SE,137,2.0,7.0,37,-99.99,,,-99.99,,2015-08-04 01:33:00,
2015-08-03 18:53:00,75.0,47.0,-100.00,SE,137,2.0,7.0,37,-99.99,,,-99.99,,2015-08-04 01:53:00,
2015-08-03 19:03:00,75.0,47.0,-100.00,SE,137,2.0,7.0,37,-99.99,,,-99.99,,2015-08-04 02:03:00,
2015-08-03 19:12:00,75.0,47.0,-100.00,SE,137,2.0,7.0,37,-99.99,,,-99.99,,2015-08-04 02:12:00,
2015-08-03 19:23:00,75.0,47.0,-100.00,SE,137,2.0,7.0,37,-99.99,,,-99.99,,2015-08-04 02:23:00,
2015-08-03 19:33:00,72.0,48.0,-100.00,North,-9999,0.0,7.0,42,-99.99,,,-99.99,,2015-08-04 02:33:00,
2015-08-03 19:53:00,72.0,48.0,-100.00,North,-9999,0.0,7.0,42,-99.99,,,-99.99,,2015-08-04 02:53:00,
2015-08-03 20:03:00,72.0,48.0,-100.00,North,-9999,0.0,7.0,42,-99.99,,,-99.99,,2015-08-04 03:03:00,
2015-08-03 20:12:00,72.0,48.0,-100.00,North,-9999,0.0,7.0,42,-99.99,,,-99.99,,2015-08-04 03:12:00,
2015-08-03 20:23:00,72.0,48.0,-100.00,North,-9999,0.0,7.0,42,-99.99,,,-99.99,,2015-08-04 03:23:00,
2015-08-03 20:33:00,68.0,49.0,-100.00,North,-9999,0.0,4.0,51,-99.99,,,-99.99,,2015-08-04 03:33:00,
2015-08-03 20:53:00,68.0,49.0,-100.00,North,-9999,0.0,4.0,51,-99.99,,,-99.99,,2015-08-04 03:53:00,
2015-08-03 21:12:00,68.0,49.0,-100.00,North,-9999,0.0,-999.0,51,-99.99,,,-99.99,,2015-08-04 04:12:00,
2015-08-03 21:23:00,68.0,49.0,-100.00,North,-9999,0.0,4.0,51,-99.99,,,-99.99,,2015-08-04 04:23:00,
2015-08-03 21:54:00,66.0,49.0,-100.00,North,-9999,0.0,2.0,55,-99.99,,,-99.99,,2015-08-04 04:54:00,
2015-08-03 22:03:00,66.0,49.0,-100.00,North,-9999,0.0,2.0,55,-99.99,,,-99.99,,2015-08-04 05:03:00,
2015-08-03 22:13:00,66.0,49.0,-100.00,North,-9999,0.0,2.0,55,-99.99,,,-99.99,,2015-08-04 05:13:00,
2015-08-03 22:24:00,66.0,49.0,-100.00,North,-9999,0.0,2.0,55,-99.99,,,-99.99,,2015-08-04 05:24:00,